Terminal Aerodrome Forecast
Issued by NWS Sioux Falls, SD

Home | Current Version | Previous Version | Graphics & Text | Print | Product List | Glossary Off
Versions: 1 2 3 4 5 6 7 8 9 10 11 12 13 14

000
FTUS43 KFSD 090533
TAFFSD
TAF
KFSD 090533Z 0906/1006 34012G18KT P6SM SCT030
      TEMPO 0906/0908 BKN030
     FM090800 34011G16KT P6SM BKN025
     FM091100 34010KT P6SM BKN015
     FM091500 33008KT P6SM SCT200
     FM092200 27007KT P6SM SCT250
     FM100000 24006KT P6SM SCT200=

USA.gov is the U.S. government's official web portal to all federal, state and local government web resources and services.